sensor_id;sensor_type;location;lat;lon;timestamp;temperature;humidity
4701;DHT22;8724;51.272;6.554;2022-12-18T00:00:08;1.50;99.90
4701;DHT22;8724;51.272;6.554;2022-12-18T00:02:49;1.50;99.90
4701;DHT22;8724;51.272;6.554;2022-12-18T00:05:17;1.50;99.90
4701;DHT22;8724;51.272;6.554;2022-12-18T00:07:48;1.40;99.90
4701;DHT22;8724;51.272;6.554;2022-12-18T00:10:16;1.40;99.90
4701;DHT22;8724;51.272;6.554;2022-12-18T00:12:45;1.50;99.90
4701;DHT22;8724;51.272;6.554;2022-12-18T00:15:14;1.40;99.90
4701;DHT22;8724;51.272;6.554;2022-12-18T00:17:42;1.40;99.90
4701;DHT22;8724;51.272;6.554;2022-12-18T00:20:12;1.40;99.90
4701;DHT22;8724;51.272;6.554;2022-12-18T00:22:40;1.60;99.90
4701;DHT22;8724;51.272;6.554;2022-12-18T00:25:08;1.40;99.90
4701;DHT22;8724;51.272;6.554;2022-12-18T00:27:36;1.40;99.90
4701;DHT22;8724;51.272;6.554;2022-12-18T00:30:05;1.40;99.90
4701;DHT22;8724;51.272;6.554;2022-12-18T00:32:35;1.40;99.90
4701;DHT22;8724;51.272;6.554;2022-12-18T00:35:04;1.40;99.90
4701;DHT22;8724;51.272;6.554;2022-12-18T00:37:34;1.40;99.90
4701;DHT22;8724;51.272;6.554;2022-12-18T00:40:05;1.40;99.90
4701;DHT22;8724;51.272;6.554;2022-12-18T00:42:33;1.40;99.90
4701;DHT22;8724;51.272;6.554;2022-12-18T00:45:18;1.60;99.90
4701;DHT22;8724;51.272;6.554;2022-12-18T00:47:47;1.40;99.90
4701;DHT22;8724;51.272;6.554;2022-12-18T00:50:15;1.40;99.90
4701;DHT22;8724;51.272;6.554;2022-12-18T00:52:45;1.40;99.90
4701;DHT22;8724;51.272;6.554;2022-12-18T00:55:14;1.40;99.90
4701;DHT22;8724;51.272;6.554;2022-12-18T00:57:43;1.40;99.90
4701;DHT22;8724;51.272;6.554;2022-12-18T01:00:14;1.40;99.90
4701;DHT22;8724;51.272;6.554;2022-12-18T01:02:42;1.40;99.90
4701;DHT22;8724;51.272;6.554;2022-12-18T01:05:12;1.40;99.90
4701;DHT22;8724;51.272;6.554;2022-12-18T01:07:41;1.40;99.90
4701;DHT22;8724;51.272;6.554;2022-12-18T01:10:12;1.40;99.90
4701;DHT22;8724;51.272;6.554;2022-12-18T01:12:40;1.40;99.90
4701;DHT22;8724;51.272;6.554;2022-12-18T01:15:12;1.40;99.90
4701;DHT22;8724;51.272;6.554;2022-12-18T01:17:41;1.40;99.90
4701;DHT22;8724;51.272;6.554;2022-12-18T01:20:11;1.40;99.90
4701;DHT22;8724;51.272;6.554;2022-12-18T01:22:40;1.30;99.90
4701;DHT22;8724;51.272;6.554;2022-12-18T01:25:08;1.30;99.90
4701;DHT22;8724;51.272;6.554;2022-12-18T01:27:38;1.30;99.90
4701;DHT22;8724;51.272;6.554;2022-12-18T01:30:07;1.30;99.90
4701;DHT22;8724;51.272;6.554;2022-12-18T01:32:35;1.30;99.90
4701;DHT22;8724;51.272;6.554;2022-12-18T01:35:04;1.30;99.90
4701;DHT22;8724;51.272;6.554;2022-12-18T01:37:32;1.30;99.90
4701;DHT22;8724;51.272;6.554;2022-12-18T01:40:01;1.30;99.90
4701;DHT22;8724;51.272;6.554;2022-12-18T01:42:29;1.30;99.90
4701;DHT22;8724;51.272;6.554;2022-12-18T01:45:21;1.30;99.90
4701;DHT22;8724;51.272;6.554;2022-12-18T01:47:55;1.30;99.90
4701;DHT22;8724;51.272;6.554;2022-12-18T01:50:27;1.30;99.90
4701;DHT22;8724;51.272;6.554;2022-12-18T01:52:59;1.30;99.90
4701;DHT22;8724;51.272;6.554;2022-12-18T01:55:29;1.30;99.90
4701;DHT22;8724;51.272;6.554;2022-12-18T01:58:00;1.30;99.90
4701;DHT22;8724;51.272;6.554;2022-12-18T02:00:30;1.30;99.90
4701;DHT22;8724;51.272;6.554;2022-12-18T02:02:58;1.30;99.90
4701;DHT22;8724;51.272;6.554;2022-12-18T02:05:36;1.20;99.90
4701;DHT22;8724;51.272;6.554;2022-12-18T02:08:10;1.30;99.90
4701;DHT22;8724;51.272;6.554;2022-12-18T02:10:46;1.30;99.90
4701;DHT22;8724;51.272;6.554;2022-12-18T02:13:20;1.20;99.90
4701;DHT22;8724;51.272;6.554;2022-12-18T02:15:58;1.20;99.90
4701;DHT22;8724;51.272;6.554;2022-12-18T02:18:33;1.20;99.90
4701;DHT22;8724;51.272;6.554;2022-12-18T02:21:08;1.20;99.90
4701;DHT22;8724;51.272;6.554;2022-12-18T02:23:48;1.20;99.90
4701;DHT22;8724;51.272;6.554;2022-12-18T02:26:26;1.40;99.90
4701;DHT22;8724;51.272;6.554;2022-12-18T02:29:00;1.30;99.90
4701;DHT22;8724;51.272;6.554;2022-12-18T02:31:34;1.30;99.90
4701;DHT22;8724;51.272;6.554;2022-12-18T02:34:04;1.30;99.90
4701;DHT22;8724;51.272;6.554;2022-12-18T02:36:40;1.20;99.90
4701;DHT22;8724;51.272;6.554;2022-12-18T02:39:12;1.20;99.90
4701;DHT22;8724;51.272;6.554;2022-12-18T02:41:53;1.20;99.90
4701;DHT22;8724;51.272;6.554;2022-12-18T02:44:23;1.20;99.90
4701;DHT22;8724;51.272;6.554;2022-12-18T02:46:53;1.20;99.90
4701;DHT22;8724;51.272;6.554;2022-12-18T02:49:28;1.20;99.90
4701;DHT22;8724;51.272;6.554;2022-12-18T02:52:07;1.30;99.90
4701;DHT22;8724;51.272;6.554;2022-12-18T02:54:52;1.20;99.90
4701;DHT22;8724;51.272;6.554;2022-12-18T02:57:33;1.20;99.90
4701;DHT22;8724;51.272;6.554;2022-12-18T03:00:07;1.20;99.90
4701;DHT22;8724;51.272;6.554;2022-12-18T03:02:40;1.20;99.90
4701;DHT22;8724;51.272;6.554;2022-12-18T03:05:14;1.20;99.90
4701;DHT22;8724;51.272;6.554;2022-12-18T03:07:47;1.20;99.90
4701;DHT22;8724;51.272;6.554;2022-12-18T03:10:21;1.20;99.90
4701;DHT22;8724;51.272;6.554;2022-12-18T03:12:59;1.20;99.90
4701;DHT22;8724;51.272;6.554;2022-12-18T03:15:31;1.20;99.90
4701;DHT22;8724;51.272;6.554;2022-12-18T03:18:12;1.20;99.90
4701;DHT22;8724;51.272;6.554;2022-12-18T03:20:43;1.20;99.90
4701;DHT22;8724;51.272;6.554;2022-12-18T03:23:18;1.20;99.90
4701;DHT22;8724;51.272;6.554;2022-12-18T03:25:56;1.20;99.90
4701;DHT22;8724;51.272;6.554;2022-12-18T03:28:42;1.20;99.90
4701;DHT22;8724;51.272;6.554;2022-12-18T03:31:14;1.20;99.90
4701;DHT22;8724;51.272;6.554;2022-12-18T03:33:47;1.20;99.90
4701;DHT22;8724;51.272;6.554;2022-12-18T03:36:24;1.20;99.90
4701;DHT22;8724;51.272;6.554;2022-12-18T03:38:52;1.20;99.90
4701;DHT22;8724;51.272;6.554;2022-12-18T03:41:28;1.20;99.90
4701;DHT22;8724;51.272;6.554;2022-12-18T03:44:24;1.50;99.90
4701;DHT22;8724;51.272;6.554;2022-12-18T03:46:58;1.20;99.90
4701;DHT22;8724;51.272;6.554;2022-12-18T03:49:37;1.20;99.90
4701;DHT22;8724;51.272;6.554;2022-12-18T03:52:09;1.40;99.90
4701;DHT22;8724;51.272;6.554;2022-12-18T03:54:41;1.10;99.90
4701;DHT22;8724;51.272;6.554;2022-12-18T03:57:15;1.20;99.90
4701;DHT22;8724;51.272;6.554;2022-12-18T03:59:48;1.20;99.90
4701;DHT22;8724;51.272;6.554;2022-12-18T04:02:19;1.20;99.90
4701;DHT22;8724;51.272;6.554;2022-12-18T04:04:55;1.10;99.90
4701;DHT22;8724;51.272;6.554;2022-12-18T04:07:29;1.20;99.90
4701;DHT22;8724;51.272;6.554;2022-12-18T04:09:59;1.20;99.90
4701;DHT22;8724;51.272;6.554;2022-12-18T04:12:30;1.20;99.90
4701;DHT22;8724;51.272;6.554;2022-12-18T04:15:00;1.20;99.90
4701;DHT22;8724;51.272;6.554;2022-12-18T04:17:28;1.20;99.90
4701;DHT22;8724;51.272;6.554;2022-12-18T04:19:57;1.20;99.90
4701;DHT22;8724;51.272;6.554;2022-12-18T04:22:25;1.20;99.90
4701;DHT22;8724;51.272;6.554;2022-12-18T04:24:58;1.20;99.90
4701;DHT22;8724;51.272;6.554;2022-12-18T04:27:34;1.20;99.90
4701;DHT22;8724;51.272;6.554;2022-12-18T04:30:06;1.20;99.90
4701;DHT22;8724;51.272;6.554;2022-12-18T04:32:35;1.20;99.90
4701;DHT22;8724;51.272;6.554;2022-12-18T04:35:04;1.20;99.90
4701;DHT22;8724;51.272;6.554;2022-12-18T04:37:35;1.20;99.90
4701;DHT22;8724;51.272;6.554;2022-12-18T04:40:05;1.20;99.90
4701;DHT22;8724;51.272;6.554;2022-12-18T04:42:39;1.20;99.90
4701;DHT22;8724;51.272;6.554;2022-12-18T04:45:09;1.20;99.90
4701;DHT22;8724;51.272;6.554;2022-12-18T04:47:38;1.20;99.90
4701;DHT22;8724;51.272;6.554;2022-12-18T04:50:07;1.20;99.90
4701;DHT22;8724;51.272;6.554;2022-12-18T04:52:36;1.20;99.90
4701;DHT22;8724;51.272;6.554;2022-12-18T04:55:05;1.40;99.90
4701;DHT22;8724;51.272;6.554;2022-12-18T04:57:36;1.20;99.90
4701;DHT22;8724;51.272;6.554;2022-12-18T05:00:09;1.20;99.90
4701;DHT22;8724;51.272;6.554;2022-12-18T05:02:40;1.20;99.90
4701;DHT22;8724;51.272;6.554;2022-12-18T05:05:08;1.20;99.90
4701;DHT22;8724;51.272;6.554;2022-12-18T05:07:37;1.20;99.90
4701;DHT22;8724;51.272;6.554;2022-12-18T05:10:09;1.20;99.90
4701;DHT22;8724;51.272;6.554;2022-12-18T05:12:37;1.20;99.90
4701;DHT22;8724;51.272;6.554;2022-12-18T05:15:33;1.20;99.90
4701;DHT22;8724;51.272;6.554;2022-12-18T05:18:03;1.10;99.90
4701;DHT22;8724;51.272;6.554;2022-12-18T05:20:33;1.20;99.90
4701;DHT22;8724;51.272;6.554;2022-12-18T05:23:04;1.20;99.90
4701;DHT22;8724;51.272;6.554;2022-12-18T05:25:34;1.20;99.90
4701;DHT22;8724;51.272;6.554;2022-12-18T05:28:04;1.20;99.90
4701;DHT22;8724;51.272;6.554;2022-12-18T05:30:34;1.20;99.90
4701;DHT22;8724;51.272;6.554;2022-12-18T05:33:03;1.20;99.90
4701;DHT22;8724;51.272;6.554;2022-12-18T05:35:34;1.20;99.90
4701;DHT22;8724;51.272;6.554;2022-12-18T05:38:06;1.20;99.90
4701;DHT22;8724;51.272;6.554;2022-12-18T05:40:34;1.20;99.90
4701;DHT22;8724;51.272;6.554;2022-12-18T05:43:03;1.30;99.90
4701;DHT22;8724;51.272;6.554;2022-12-18T05:45:36;1.20;99.90
4701;DHT22;8724;51.272;6.554;2022-12-18T05:48:09;1.20;99.90
4701;DHT22;8724;51.272;6.554;2022-12-18T05:50:42;1.20;99.90
4701;DHT22;8724;51.272;6.554;2022-12-18T05:53:10;1.30;99.90
4701;DHT22;8724;51.272;6.554;2022-12-18T05:55:45;1.30;99.90
4701;DHT22;8724;51.272;6.554;2022-12-18T05:58:14;1.30;99.90
4701;DHT22;8724;51.272;6.554;2022-12-18T06:00:48;1.40;99.90
4701;DHT22;8724;51.272;6.554;2022-12-18T06:03:19;1.30;99.90
4701;DHT22;8724;51.272;6.554;2022-12-18T06:05:49;1.20;99.90
4701;DHT22;8724;51.272;6.554;2022-12-18T06:08:18;1.20;99.90
4701;DHT22;8724;51.272;6.554;2022-12-18T06:10:52;1.30;99.90
4701;DHT22;8724;51.272;6.554;2022-12-18T06:13:22;1.20;99.90
4701;DHT22;8724;51.272;6.554;2022-12-18T06:15:51;1.30;99.90
4701;DHT22;8724;51.272;6.554;2022-12-18T06:18:20;1.30;99.90
4701;DHT22;8724;51.272;6.554;2022-12-18T06:20:55;1.20;99.90
4701;DHT22;8724;51.272;6.554;2022-12-18T06:23:26;1.30;99.90
4701;DHT22;8724;51.272;6.554;2022-12-18T06:25:58;1.30;99.90
4701;DHT22;8724;51.272;6.554;2022-12-18T06:28:27;1.20;99.90
4701;DHT22;8724;51.272;6.554;2022-12-18T06:30:59;1.30;99.90
4701;DHT22;8724;51.272;6.554;2022-12-18T06:33:29;1.20;99.90
4701;DHT22;8724;51.272;6.554;2022-12-18T06:36:03;1.20;99.90
4701;DHT22;8724;51.272;6.554;2022-12-18T06:38:42;1.30;99.90
4701;DHT22;8724;51.272;6.554;2022-12-18T06:41:25;1.20;99.90
4701;DHT22;8724;51.272;6.554;2022-12-18T06:43:53;1.20;99.90
4701;DHT22;8724;51.272;6.554;2022-12-18T06:46:27;1.20;99.90
4701;DHT22;8724;51.272;6.554;2022-12-18T06:48:56;1.30;99.90
4701;DHT22;8724;51.272;6.554;2022-12-18T06:51:25;1.50;99.90
4701;DHT22;8724;51.272;6.554;2022-12-18T06:53:53;1.20;99.90
4701;DHT22;8724;51.272;6.554;2022-12-18T06:56:21;1.20;99.90
4701;DHT22;8724;51.272;6.554;2022-12-18T06:58:51;1.00;99.90
4701;DHT22;8724;51.272;6.554;2022-12-18T07:01:21;1.20;99.90
4701;DHT22;8724;51.272;6.554;2022-12-18T07:03:53;1.30;99.90
4701;DHT22;8724;51.272;6.554;2022-12-18T07:06:25;1.20;99.90
4701;DHT22;8724;51.272;6.554;2022-12-18T07:08:54;1.20;99.90
4701;DHT22;8724;51.272;6.554;2022-12-18T07:11:24;1.30;99.90
4701;DHT22;8724;51.272;6.554;2022-12-18T07:13:53;1.30;99.90
4701;DHT22;8724;51.272;6.554;2022-12-18T07:16:22;1.30;99.90
4701;DHT22;8724;51.272;6.554;2022-12-18T07:18:54;0.90;99.90
4701;DHT22;8724;51.272;6.554;2022-12-18T07:21:24;1.30;99.90
4701;DHT22;8724;51.272;6.554;2022-12-18T07:23:53;1.20;99.90
4701;DHT22;8724;51.272;6.554;2022-12-18T07:26:22;1.20;99.90
4701;DHT22;8724;51.272;6.554;2022-12-18T07:28:50;1.20;99.90
4701;DHT22;8724;51.272;6.554;2022-12-18T07:31:20;1.30;99.90
4701;DHT22;8724;51.272;6.554;2022-12-18T07:33:49;1.40;99.90
4701;DHT22;8724;51.272;6.554;2022-12-18T07:36:19;1.20;99.90
4701;DHT22;8724;51.272;6.554;2022-12-18T07:38:51;1.20;99.90
4701;DHT22;8724;51.272;6.554;2022-12-18T07:41:20;1.20;99.90
4701;DHT22;8724;51.272;6.554;2022-12-18T07:43:48;1.20;99.90
4701;DHT22;8724;51.272;6.554;2022-12-18T07:46:17;1.30;99.90
4701;DHT22;8724;51.272;6.554;2022-12-18T07:48:45;1.40;99.90
4701;DHT22;8724;51.272;6.554;2022-12-18T07:51:16;1.20;99.90
4701;DHT22;8724;51.272;6.554;2022-12-18T07:53:46;1.30;99.90
4701;DHT22;8724;51.272;6.554;2022-12-18T07:56:19;1.20;99.90
4701;DHT22;8724;51.272;6.554;2022-12-18T07:58:54;1.30;99.90
4701;DHT22;8724;51.272;6.554;2022-12-18T08:01:24;1.30;99.90
4701;DHT22;8724;51.272;6.554;2022-12-18T08:03:53;1.30;99.90
4701;DHT22;8724;51.272;6.554;2022-12-18T08:06:21;1.30;99.90
4701;DHT22;8724;51.272;6.554;2022-12-18T08:08:53;1.30;99.90
4701;DHT22;8724;51.272;6.554;2022-12-18T08:11:24;1.30;99.90
4701;DHT22;8724;51.272;6.554;2022-12-18T08:13:53;1.40;99.90
4701;DHT22;8724;51.272;6.554;2022-12-18T08:16:21;1.30;99.90
4701;DHT22;8724;51.272;6.554;2022-12-18T08:18:51;1.30;99.90
4701;DHT22;8724;51.272;6.554;2022-12-18T08:21:22;1.30;99.90
4701;DHT22;8724;51.272;6.554;2022-12-18T08:23:53;1.00;99.90
4701;DHT22;8724;51.272;6.554;2022-12-18T08:26:22;1.30;99.90
4701;DHT22;8724;51.272;6.554;2022-12-18T08:28:51;1.40;99.90
4701;DHT22;8724;51.272;6.554;2022-12-18T08:31:19;1.40;99.90
4701;DHT22;8724;51.272;6.554;2022-12-18T08:33:50;1.30;99.90
4701;DHT22;8724;51.272;6.554;2022-12-18T08:36:20;1.30;99.90
4701;DHT22;8724;51.272;6.554;2022-12-18T08:38:48;1.40;99.90
4701;DHT22;8724;51.272;6.554;2022-12-18T08:41:18;1.40;99.90
4701;DHT22;8724;51.272;6.554;2022-12-18T08:43:47;1.40;99.90
4701;DHT22;8724;51.272;6.554;2022-12-18T08:46:35;1.40;99.90
4701;DHT22;8724;51.272;6.554;2022-12-18T08:49:04;1.40;99.90
4701;DHT22;8724;51.272;6.554;2022-12-18T08:51:33;1.40;99.90
4701;DHT22;8724;51.272;6.554;2022-12-18T08:54:03;1.40;99.90
4701;DHT22;8724;51.272;6.554;2022-12-18T08:56:34;1.50;99.90
4701;DHT22;8724;51.272;6.554;2022-12-18T08:59:02;1.40;99.90
4701;DHT22;8724;51.272;6.554;2022-12-18T09:01:31;1.50;99.90
4701;DHT22;8724;51.272;6.554;2022-12-18T09:04:00;1.50;99.90
4701;DHT22;8724;51.272;6.554;2022-12-18T09:06:28;1.30;99.90
4701;DHT22;8724;51.272;6.554;2022-12-18T09:08:59;1.50;99.90
4701;DHT22;8724;51.272;6.554;2022-12-18T09:11:28;1.50;99.90
4701;DHT22;8724;51.272;6.554;2022-12-18T09:13:59;1.60;99.90
4701;DHT22;8724;51.272;6.554;2022-12-18T09:16:29;1.60;99.90
4701;DHT22;8724;51.272;6.554;2022-12-18T09:19:08;1.60;99.90
4701;DHT22;8724;51.272;6.554;2022-12-18T09:21:42;1.60;99.90
4701;DHT22;8724;51.272;6.554;2022-12-18T09:24:14;1.60;99.90
4701;DHT22;8724;51.272;6.554;2022-12-18T09:26:43;1.60;99.90
4701;DHT22;8724;51.272;6.554;2022-12-18T09:29:15;1.60;99.90
4701;DHT22;8724;51.272;6.554;2022-12-18T09:31:45;1.60;99.90
4701;DHT22;8724;51.272;6.554;2022-12-18T09:34:13;1.70;99.90
4701;DHT22;8724;51.272;6.554;2022-12-18T09:36:41;1.80;99.90
4701;DHT22;8724;51.272;6.554;2022-12-18T09:39:10;1.70;99.90
4701;DHT22;8724;51.272;6.554;2022-12-18T09:41:44;1.70;99.90
4701;DHT22;8724;51.272;6.554;2022-12-18T09:44:23;1.70;99.90
4701;DHT22;8724;51.272;6.554;2022-12-18T09:47:06;1.80;99.90
4701;DHT22;8724;51.272;6.554;2022-12-18T09:49:41;1.80;99.90
4701;DHT22;8724;51.272;6.554;2022-12-18T09:52:16;1.50;99.90
4701;DHT22;8724;51.272;6.554;2022-12-18T09:54:49;2.00;99.90
4701;DHT22;8724;51.272;6.554;2022-12-18T09:57:20;1.80;99.90
4701;DHT22;8724;51.272;6.554;2022-12-18T09:59:54;1.80;99.90
4701;DHT22;8724;51.272;6.554;2022-12-18T10:02:26;1.90;99.90
4701;DHT22;8724;51.272;6.554;2022-12-18T10:05:02;1.90;99.90
4701;DHT22;8724;51.272;6.554;2022-12-18T10:07:52;1.90;99.90
4701;DHT22;8724;51.272;6.554;2022-12-18T10:10:27;1.90;99.90
4701;DHT22;8724;51.272;6.554;2022-12-18T10:13:06;1.90;99.90
4701;DHT22;8724;51.272;6.554;2022-12-18T10:15:45;1.90;99.90
4701;DHT22;8724;51.272;6.554;2022-12-18T10:18:23;1.90;99.90
4701;DHT22;8724;51.272;6.554;2022-12-18T10:20:57;2.00;99.90
4701;DHT22;8724;51.272;6.554;2022-12-18T10:23:32;2.00;99.90
4701;DHT22;8724;51.272;6.554;2022-12-18T10:26:03;2.00;99.90
4701;DHT22;8724;51.272;6.554;2022-12-18T10:28:34;2.00;99.90
4701;DHT22;8724;51.272;6.554;2022-12-18T10:31:10;2.00;99.90
4701;DHT22;8724;51.272;6.554;2022-12-18T10:33:43;2.00;99.90
4701;DHT22;8724;51.272;6.554;2022-12-18T10:36:12;2.10;99.90
4701;DHT22;8724;51.272;6.554;2022-12-18T10:38:41;2.10;99.90
4701;DHT22;8724;51.272;6.554;2022-12-18T10:41:24;2.10;99.90
4701;DHT22;8724;51.272;6.554;2022-12-18T10:44:14;2.10;99.90
4701;DHT22;8724;51.272;6.554;2022-12-18T10:46:46;2.10;99.90
4701;DHT22;8724;51.272;6.554;2022-12-18T10:49:23;2.10;99.90
4701;DHT22;8724;51.272;6.554;2022-12-18T10:51:52;2.20;99.90
4701;DHT22;8724;51.272;6.554;2022-12-18T10:54:33;2.20;99.90
4701;DHT22;8724;51.272;6.554;2022-12-18T10:57:17;2.20;99.90
4701;DHT22;8724;51.272;6.554;2022-12-18T10:59:53;2.20;99.90
4701;DHT22;8724;51.272;6.554;2022-12-18T11:02:34;2.20;99.90
4701;DHT22;8724;51.272;6.554;2022-12-18T11:05:24;2.20;99.90
4701;DHT22;8724;51.272;6.554;2022-12-18T11:07:52;2.20;99.90
4701;DHT22;8724;51.272;6.554;2022-12-18T11:10:25;2.30;99.90
4701;DHT22;8724;51.272;6.554;2022-12-18T11:12:55;2.20;99.90
4701;DHT22;8724;51.272;6.554;2022-12-18T11:15:27;2.20;99.90
4701;DHT22;8724;51.272;6.554;2022-12-18T11:17:58;2.30;99.90
4701;DHT22;8724;51.272;6.554;2022-12-18T11:20:31;2.30;99.90
4701;DHT22;8724;51.272;6.554;2022-12-18T11:23:02;2.30;99.90
4701;DHT22;8724;51.272;6.554;2022-12-18T11:25:32;2.30;99.90
4701;DHT22;8724;51.272;6.554;2022-12-18T11:28:03;2.40;99.90
4701;DHT22;8724;51.272;6.554;2022-12-18T11:30:33;2.30;99.90
4701;DHT22;8724;51.272;6.554;2022-12-18T11:33:06;2.30;99.90
4701;DHT22;8724;51.272;6.554;2022-12-18T11:35:42;2.30;99.90
4701;DHT22;8724;51.272;6.554;2022-12-18T11:38:20;2.40;99.90
4701;DHT22;8724;51.272;6.554;2022-12-18T11:40:54;2.40;99.90
4701;DHT22;8724;51.272;6.554;2022-12-18T11:43:28;2.40;99.90
4701;DHT22;8724;51.272;6.554;2022-12-18T11:46:02;2.40;99.90
4701;DHT22;8724;51.272;6.554;2022-12-18T11:48:38;2.40;99.90
4701;DHT22;8724;51.272;6.554;2022-12-18T11:51:13;2.40;99.90
4701;DHT22;8724;51.272;6.554;2022-12-18T11:53:42;2.40;99.90
4701;DHT22;8724;51.272;6.554;2022-12-18T11:56:26;2.40;99.90
4701;DHT22;8724;51.272;6.554;2022-12-18T11:59:03;2.40;99.90
4701;DHT22;8724;51.272;6.554;2022-12-18T12:01:46;2.60;99.90
4701;DHT22;8724;51.272;6.554;2022-12-18T12:04:45;2.50;99.90
4701;DHT22;8724;51.272;6.554;2022-12-18T12:07:24;2.50;99.90
4701;DHT22;8724;51.272;6.554;2022-12-18T12:10:04;2.40;99.90
4701;DHT22;8724;51.272;6.554;2022-12-18T12:12:42;2.50;99.90
4701;DHT22;8724;51.272;6.554;2022-12-18T12:15:27;2.50;99.90
4701;DHT22;8724;51.272;6.554;2022-12-18T12:18:05;2.50;99.90
4701;DHT22;8724;51.272;6.554;2022-12-18T12:20:47;2.50;99.90
4701;DHT22;8724;51.272;6.554;2022-12-18T12:23:26;2.50;99.90
4701;DHT22;8724;51.272;6.554;2022-12-18T12:25:59;2.50;99.90
4701;DHT22;8724;51.272;6.554;2022-12-18T12:28:55;2.50;99.90
4701;DHT22;8724;51.272;6.554;2022-12-18T12:34:22;2.50;99.90
4701;DHT22;8724;51.272;6.554;2022-12-18T12:37:04;2.60;99.90
4701;DHT22;8724;51.272;6.554;2022-12-18T12:39:39;2.60;99.90
4701;DHT22;8724;51.272;6.554;2022-12-18T12:42:15;2.60;99.90
4701;DHT22;8724;51.272;6.554;2022-12-18T12:45:06;2.90;99.90
4701;DHT22;8724;51.272;6.554;2022-12-18T12:47:38;2.60;99.90
4701;DHT22;8724;51.272;6.554;2022-12-18T12:50:13;2.70;99.90
4701;DHT22;8724;51.272;6.554;2022-12-18T12:52:47;2.60;99.90
4701;DHT22;8724;51.272;6.554;2022-12-18T12:55:19;2.60;99.90
4701;DHT22;8724;51.272;6.554;2022-12-18T12:57:58;2.70;99.90
4701;DHT22;8724;51.272;6.554;2022-12-18T13:00:31;2.70;99.90
4701;DHT22;8724;51.272;6.554;2022-12-18T13:03:08;2.70;99.90
4701;DHT22;8724;51.272;6.554;2022-12-18T13:05:45;2.70;99.90
4701;DHT22;8724;51.272;6.554;2022-12-18T13:08:26;2.70;99.90
4701;DHT22;8724;51.272;6.554;2022-12-18T13:10:58;2.70;99.90
4701;DHT22;8724;51.272;6.554;2022-12-18T13:13:49;2.70;99.90
4701;DHT22;8724;51.272;6.554;2022-12-18T13:16:19;2.70;99.90
4701;DHT22;8724;51.272;6.554;2022-12-18T13:18:49;2.70;99.90
4701;DHT22;8724;51.272;6.554;2022-12-18T13:21:23;2.70;99.90
4701;DHT22;8724;51.272;6.554;2022-12-18T13:23:55;2.70;99.90
4701;DHT22;8724;51.272;6.554;2022-12-18T13:26:32;2.70;99.90
4701;DHT22;8724;51.272;6.554;2022-12-18T13:29:02;2.70;99.90
4701;DHT22;8724;51.272;6.554;2022-12-18T13:34:36;2.70;99.90
4701;DHT22;8724;51.272;6.554;2022-12-18T13:37:40;2.70;99.90
4701;DHT22;8724;51.272;6.554;2022-12-18T13:43:39;2.70;99.90
4701;DHT22;8724;51.272;6.554;2022-12-18T13:46:22;2.70;99.90
4701;DHT22;8724;51.272;6.554;2022-12-18T13:48:57;2.70;99.90
4701;DHT22;8724;51.272;6.554;2022-12-18T13:51:26;2.70;99.90
4701;DHT22;8724;51.272;6.554;2022-12-18T13:53:58;2.80;99.90
4701;DHT22;8724;51.272;6.554;2022-12-18T13:56:30;2.80;99.90
4701;DHT22;8724;51.272;6.554;2022-12-18T13:59:20;2.80;99.90
4701;DHT22;8724;51.272;6.554;2022-12-18T14:01:54;2.80;99.90
4701;DHT22;8724;51.272;6.554;2022-12-18T14:04:26;2.70;99.90
4701;DHT22;8724;51.272;6.554;2022-12-18T14:06:57;2.70;99.90
4701;DHT22;8724;51.272;6.554;2022-12-18T14:09:29;2.90;99.90
4701;DHT22;8724;51.272;6.554;2022-12-18T14:11:59;2.80;99.90
4701;DHT22;8724;51.272;6.554;2022-12-18T14:14:49;2.80;99.90
4701;DHT22;8724;51.272;6.554;2022-12-18T14:17:21;2.80;99.90
4701;DHT22;8724;51.272;6.554;2022-12-18T14:19:51;2.80;99.90
4701;DHT22;8724;51.272;6.554;2022-12-18T14:22:21;2.80;99.90
4701;DHT22;8724;51.272;6.554;2022-12-18T14:25:14;2.70;99.90
4701;DHT22;8724;51.272;6.554;2022-12-18T14:27:45;2.80;99.90
4701;DHT22;8724;51.272;6.554;2022-12-18T14:30:30;2.80;99.90
4701;DHT22;8724;51.272;6.554;2022-12-18T14:33:03;2.80;99.90
4701;DHT22;8724;51.272;6.554;2022-12-18T14:35:31;2.80;99.90
4701;DHT22;8724;51.272;6.554;2022-12-18T14:38:20;2.70;99.90
4701;DHT22;8724;51.272;6.554;2022-12-18T14:40:52;2.80;99.90
4701;DHT22;8724;51.272;6.554;2022-12-18T14:43:23;2.80;99.90
4701;DHT22;8724;51.272;6.554;2022-12-18T14:45:53;2.80;99.90
4701;DHT22;8724;51.272;6.554;2022-12-18T14:48:30;2.80;99.90
4701;DHT22;8724;51.272;6.554;2022-12-18T14:51:03;2.80;99.90
4701;DHT22;8724;51.272;6.554;2022-12-18T14:53:35;2.80;99.90
4701;DHT22;8724;51.272;6.554;2022-12-18T14:56:15;2.80;99.90
4701;DHT22;8724;51.272;6.554;2022-12-18T14:58:47;2.80;99.90
4701;DHT22;8724;51.272;6.554;2022-12-18T15:01:23;2.80;99.90
4701;DHT22;8724;51.272;6.554;2022-12-18T15:03:53;2.80;99.90
4701;DHT22;8724;51.272;6.554;2022-12-18T15:06:30;2.80;99.90
4701;DHT22;8724;51.272;6.554;2022-12-18T15:08:59;2.80;99.90
4701;DHT22;8724;51.272;6.554;2022-12-18T15:11:33;2.80;99.90
4701;DHT22;8724;51.272;6.554;2022-12-18T15:14:24;2.80;99.90
4701;DHT22;8724;51.272;6.554;2022-12-18T15:16:59;2.80;99.90
4701;DHT22;8724;51.272;6.554;2022-12-18T15:19:36;2.80;99.90
4701;DHT22;8724;51.272;6.554;2022-12-18T15:22:17;2.80;99.90
4701;DHT22;8724;51.272;6.554;2022-12-18T15:24:48;2.80;99.90
4701;DHT22;8724;51.272;6.554;2022-12-18T15:27:26;2.80;99.90
4701;DHT22;8724;51.272;6.554;2022-12-18T15:30:10;2.80;99.90
4701;DHT22;8724;51.272;6.554;2022-12-18T15:32:45;2.80;99.90
4701;DHT22;8724;51.272;6.554;2022-12-18T15:35:16;2.80;99.90
4701;DHT22;8724;51.272;6.554;2022-12-18T15:37:45;2.80;99.90
4701;DHT22;8724;51.272;6.554;2022-12-18T15:40:14;2.70;99.90
4701;DHT22;8724;51.272;6.554;2022-12-18T15:42:43;2.60;99.90
4701;DHT22;8724;51.272;6.554;2022-12-18T15:45:30;2.70;99.90
4701;DHT22;8724;51.272;6.554;2022-12-18T15:47:59;2.70;99.90
4701;DHT22;8724;51.272;6.554;2022-12-18T15:50:28;2.70;99.90
4701;DHT22;8724;51.272;6.554;2022-12-18T15:52:56;2.70;99.90
4701;DHT22;8724;51.272;6.554;2022-12-18T15:55:25;2.70;99.90
4701;DHT22;8724;51.272;6.554;2022-12-18T15:58:10;2.60;99.90
4701;DHT22;8724;51.272;6.554;2022-12-18T16:00:40;2.60;99.90
4701;DHT22;8724;51.272;6.554;2022-12-18T16:03:14;2.60;99.90
4701;DHT22;8724;51.272;6.554;2022-12-18T16:05:43;2.60;99.90
4701;DHT22;8724;51.272;6.554;2022-12-18T16:08:11;2.60;99.90
4701;DHT22;8724;51.272;6.554;2022-12-18T16:10:39;2.50;99.90
4701;DHT22;8724;51.272;6.554;2022-12-18T16:13:10;2.50;99.90
4701;DHT22;8724;51.272;6.554;2022-12-18T16:15:38;2.50;99.90
4701;DHT22;8724;51.272;6.554;2022-12-18T16:18:06;2.50;99.90
4701;DHT22;8724;51.272;6.554;2022-12-18T16:20:38;2.50;99.90
4701;DHT22;8724;51.272;6.554;2022-12-18T16:23:07;2.50;99.90
4701;DHT22;8724;51.272;6.554;2022-12-18T16:25:37;2.50;99.90
4701;DHT22;8724;51.272;6.554;2022-12-18T16:28:05;2.50;99.90
4701;DHT22;8724;51.272;6.554;2022-12-18T16:30:33;2.50;99.90
4701;DHT22;8724;51.272;6.554;2022-12-18T16:33:05;2.50;99.90
4701;DHT22;8724;51.272;6.554;2022-12-18T16:35:33;2.50;99.90
4701;DHT22;8724;51.272;6.554;2022-12-18T16:38:05;2.70;99.90
4701;DHT22;8724;51.272;6.554;2022-12-18T16:40:33;2.50;99.90
4701;DHT22;8724;51.272;6.554;2022-12-18T16:43:21;2.50;99.90
4701;DHT22;8724;51.272;6.554;2022-12-18T16:45:50;2.50;99.90
4701;DHT22;8724;51.272;6.554;2022-12-18T16:48:18;2.50;99.90
4701;DHT22;8724;51.272;6.554;2022-12-18T16:50:46;2.50;99.90
4701;DHT22;8724;51.272;6.554;2022-12-18T16:53:16;2.40;99.90
4701;DHT22;8724;51.272;6.554;2022-12-18T16:55:44;2.50;99.90
4701;DHT22;8724;51.272;6.554;2022-12-18T16:58:12;2.50;99.90
4701;DHT22;8724;51.272;6.554;2022-12-18T17:00:40;2.50;99.90
4701;DHT22;8724;51.272;6.554;2022-12-18T17:03:08;2.50;99.90